Time,TemperatureF,DewpointF,PressureIn,WindDirection,WindDirectionDegrees,WindSpeedMPH,WindSpeedGustMPH,Humidity,HourlyPrecipIn,Conditions,Clouds,dailyrainin,SolarRadiationWatts/m^2,SoftwareType,DateUTC
2013-07-19 00:01:00,75.6,73.1,30.10,SE,127,0.0,0.0,92,0.00,SCT,,0.00,0.0,WeatherDisplay:10.37,2013-07-19 04:01:00,
2013-07-19 00:02:00,75.6,73.1,30.10,SE,127,0.0,0.1,92,0.00,SCT,,0.00,0.0,WeatherDisplay:10.37,2013-07-19 04:02:00,
2013-07-19 00:07:00,75.5,73.3,30.10,SE,127,0.0,0.0,93,0.00,SCT,,0.00,0.0,WeatherDisplay:10.37,2013-07-19 04:07:00,
2013-07-19 00:12:00,75.3,73.1,30.10,SE,127,0.0,0.0,93,0.00,SCT,,0.00,0.0,WeatherDisplay:10.37,2013-07-19 04:12:00,
2013-07-19 00:17:00,75.2,73.0,30.10,SE,127,0.0,0.0,93,0.00,SCT,,0.00,0.0,WeatherDisplay:10.37,2013-07-19 04:17:00,
2013-07-19 00:22:00,75.1,72.9,30.10,SE,127,0.0,0.0,93,0.00,SCT,,0.00,0.0,WeatherDisplay:10.37,2013-07-19 04:22:00,
2013-07-19 00:27:00,75.0,72.8,30.10,SE,127,0.0,0.0,93,0.00,SCT,,0.00,0.0,WeatherDisplay:10.37,2013-07-19 04:27:00,
2013-07-19 00:32:00,74.9,72.7,30.10,SE,128,0.0,0.0,93,0.00,SCT,,0.00,0.0,WeatherDisplay:10.37,2013-07-19 04:32:00,
2013-07-19 00:37:00,74.8,72.6,30.10,SE,127,0.0,0.0,93,0.00,SCT,,0.00,0.0,WeatherDisplay:10.37,2013-07-19 04:37:00,
2013-07-19 00:42:00,74.7,72.9,30.10,SE,127,0.0,0.0,94,0.00,SCT,,0.00,0.0,WeatherDisplay:10.37,2013-07-19 04:42:00,
2013-07-19 00:47:00,74.6,72.8,30.10,SE,128,0.0,0.0,94,0.00,SCT,,0.00,0.0,WeatherDisplay:10.37,2013-07-19 04:47:00,
2013-07-19 00:52:00,74.5,72.7,30.10,SE,128,0.0,0.0,94,0.00,SCT,,0.00,0.0,WeatherDisplay:10.37,2013-07-19 04:52:00,
2013-07-19 00:57:00,74.4,72.6,30.10,NNE,29,2.3,2.3,94,0.00,SCT,,0.00,0.0,WeatherDisplay:10.37,2013-07-19 04:57:00,
2013-07-19 01:02:00,74.4,72.6,30.09,NNE,29,1.2,1.2,94,0.00,CLR,,0.00,0.0,WeatherDisplay:10.37,2013-07-19 05:02:00,
2013-07-19 01:07:00,74.3,72.5,30.09,NNE,28,1.2,0.0,94,0.00,CLR,,0.00,0.0,WeatherDisplay:10.37,2013-07-19 05:07:00,
2013-07-19 01:12:00,74.2,72.4,30.09,NNE,28,0.0,0.0,94,0.00,CLR,,0.00,0.0,WeatherDisplay:10.37,2013-07-19 05:12:00,
2013-07-19 01:17:00,74.1,72.3,30.09,NNE,29,0.0,0.0,94,0.00,CLR,,0.00,0.0,WeatherDisplay:10.37,2013-07-19 05:17:00,
2013-07-19 01:22:00,74.0,72.2,30.09,NNE,28,0.0,0.0,94,0.00,CLR,,0.00,0.0,WeatherDisplay:10.37,2013-07-19 05:22:00,
2013-07-19 01:27:00,73.9,72.1,30.08,NNE,29,0.0,0.0,94,0.00,CLR,,0.00,0.0,WeatherDisplay:10.37,2013-07-19 05:27:00,
2013-07-19 01:32:00,73.9,72.1,30.09,NNE,28,0.0,0.0,94,0.00,CLR,,0.00,0.0,WeatherDisplay:10.37,2013-07-19 05:32:00,
2013-07-19 01:37:00,73.8,72.3,30.09,NNE,33,0.0,0.0,95,0.00,CLR,,0.00,0.0,WeatherDisplay:10.37,2013-07-19 05:37:00,
2013-07-19 01:42:00,73.7,72.2,30.09,NE,34,0.0,0.0,95,0.00,CLR,,0.00,0.0,WeatherDisplay:10.37,2013-07-19 05:42:00,
2013-07-19 01:47:00,73.7,72.2,30.09,NNE,33,0.0,0.0,95,0.00,CLR,,0.00,0.0,WeatherDisplay:10.37,2013-07-19 05:47:00,
2013-07-19 01:52:00,73.7,72.2,30.09,NNE,33,0.0,0.0,95,0.00,CLR,,0.00,0.0,WeatherDisplay:10.37,2013-07-19 05:52:00,
2013-07-19 01:57:00,73.6,72.1,30.08,NNE,33,1.2,0.0,95,0.00,CLR,,0.00,0.0,WeatherDisplay:10.37,2013-07-19 05:57:00,
2013-07-19 02:02:00,73.6,72.1,30.08,NNE,33,0.0,0.0,95,0.00,CLR,,0.00,0.0,WeatherDisplay:10.37,2013-07-19 06:02:00,
2013-07-19 02:07:00,73.7,72.5,30.08,NNE,33,0.0,0.0,96,0.00,CLR,,0.00,0.0,WeatherDisplay:10.37,2013-07-19 06:07:00,
2013-07-19 02:12:00,73.7,72.5,30.08,NNE,33,0.0,0.0,96,0.00,CLR,,0.00,0.0,WeatherDisplay:10.37,2013-07-19 06:12:00,
2013-07-19 02:17:00,73.7,72.5,30.08,NNE,33,0.0,0.0,96,0.00,CLR,,0.00,0.0,WeatherDisplay:10.37,2013-07-19 06:17:00,
2013-07-19 02:22:00,73.7,72.5,30.08,NNE,33,0.0,0.0,96,0.00,CLR,,0.00,0.0,WeatherDisplay:10.37,2013-07-19 06:22:00,
2013-07-19 02:27:00,73.7,72.5,30.08,NNE,33,0.0,0.0,96,0.00,CLR,,0.00,0.0,WeatherDisplay:10.37,2013-07-19 06:27:00,
2013-07-19 02:32:00,73.6,72.4,30.08,SE,131,1.2,1.2,96,0.00,CLR,,0.00,0.0,WeatherDisplay:10.37,2013-07-19 06:32:00,
2013-07-19 02:37:00,73.6,72.4,30.07,SE,132,0.0,0.0,96,0.00,CLR,,0.00,0.0,WeatherDisplay:10.37,2013-07-19 06:37:00,
2013-07-19 02:42:00,73.7,72.5,30.07,SE,135,0.0,0.0,96,0.00,CLR,,0.00,0.0,WeatherDisplay:10.37,2013-07-19 06:42:00,
2013-07-19 02:47:00,73.7,72.5,30.07,NE,49,1.2,1.2,96,0.00,CLR,,0.00,0.0,WeatherDisplay:10.37,2013-07-19 06:47:00,
2013-07-19 02:52:00,73.9,72.7,30.07,NNE,32,1.2,1.2,96,0.00,CLR,,0.00,0.0,WeatherDisplay:10.37,2013-07-19 06:52:00,
2013-07-19 02:57:00,73.9,72.7,30.07,NNE,31,1.2,0.0,96,0.00,CLR,,0.00,0.0,WeatherDisplay:10.37,2013-07-19 06:57:00,
2013-07-19 03:02:00,73.9,72.7,30.07,NNE,31,0.0,0.0,96,0.00,FEW,,0.00,0.0,WeatherDisplay:10.37,2013-07-19 07:02:00,
2013-07-19 03:07:00,73.9,72.7,30.07,NNE,31,0.0,0.0,96,0.00,FEW,,0.00,0.0,WeatherDisplay:10.37,2013-07-19 07:07:00,
2013-07-19 03:12:00,73.9,72.7,30.07,NNE,31,0.0,0.0,96,0.00,FEW,,0.00,0.0,WeatherDisplay:10.37,2013-07-19 07:12:00,
2013-07-19 03:17:00,73.8,72.6,30.07,NNE,31,0.0,0.0,96,0.00,FEW,,0.00,0.0,WeatherDisplay:10.37,2013-07-19 07:17:00,
2013-07-19 03:22:00,73.7,72.5,30.07,NNE,31,0.0,0.0,96,0.00,FEW,,0.00,0.0,WeatherDisplay:10.37,2013-07-19 07:22:00,
2013-07-19 03:27:00,73.7,72.5,30.07,NNE,32,0.0,0.0,96,0.00,FEW,,0.00,0.0,WeatherDisplay:10.37,2013-07-19 07:27:00,
2013-07-19 03:33:00,73.7,72.5,30.07,NNE,31,0.0,0.0,96,0.00,FEW,,0.00,0.0,WeatherDisplay:10.37,2013-07-19 07:33:00,
2013-07-19 03:38:00,73.7,72.5,30.07,NNE,31,0.0,0.0,96,0.00,FEW,,0.00,0.0,WeatherDisplay:10.37,2013-07-19 07:38:00,
2013-07-19 03:43:00,73.7,72.5,30.07,NNE,31,0.0,0.0,96,0.00,FEW,,0.00,0.0,WeatherDisplay:10.37,2013-07-19 07:43:00,
2013-07-19 03:48:00,73.6,72.4,30.07,NNE,31,0.0,0.0,96,0.00,FEW,,0.00,0.0,WeatherDisplay:10.37,2013-07-19 07:48:00,
2013-07-19 03:53:00,73.6,72.4,30.07,NNE,31,0.0,0.0,96,0.00,FEW,,0.00,0.0,WeatherDisplay:10.37,2013-07-19 07:53:00,
2013-07-19 03:58:00,73.6,72.4,30.07,NNE,31,0.0,0.0,96,0.00,FEW,,0.00,0.0,WeatherDisplay:10.37,2013-07-19 07:58:00,
2013-07-19 04:03:00,73.6,72.4,30.07,NNE,22,1.2,1.2,96,0.00,FEW,,0.00,0.0,WeatherDisplay:10.37,2013-07-19 08:03:00,
2013-07-19 04:08:00,73.6,72.4,30.07,NNE,22,1.2,0.0,96,0.00,FEW,,0.00,0.0,WeatherDisplay:10.37,2013-07-19 08:08:00,
2013-07-19 04:13:00,73.6,72.4,30.07,NNE,22,0.0,0.0,96,0.00,FEW,,0.00,0.0,WeatherDisplay:10.37,2013-07-19 08:13:00,
2013-07-19 04:18:00,73.6,72.4,30.07,NNE,21,0.0,0.0,96,0.00,FEW,,0.00,0.0,WeatherDisplay:10.37,2013-07-19 08:18:00,
2013-07-19 04:23:00,73.6,72.4,30.07,NNE,22,0.0,0.0,96,0.00,FEW,,0.00,0.0,WeatherDisplay:10.37,2013-07-19 08:23:00,
2013-07-19 04:28:00,73.6,72.4,30.07,NNE,23,0.0,0.0,96,0.00,FEW,,0.00,0.0,WeatherDisplay:10.37,2013-07-19 08:28:00,
2013-07-19 04:33:00,73.6,72.4,30.07,NNE,22,0.0,0.0,96,0.00,FEW,,0.00,0.0,WeatherDisplay:10.37,2013-07-19 08:33:00,
2013-07-19 04:38:00,73.6,72.4,30.07,NNE,22,0.0,0.0,96,0.00,FEW,,0.00,0.0,WeatherDisplay:10.37,2013-07-19 08:38:00,
2013-07-19 04:43:00,73.6,72.4,30.07,NNE,22,0.0,0.0,96,0.00,FEW,,0.00,0.0,WeatherDisplay:10.37,2013-07-19 08:43:00,
2013-07-19 04:48:00,73.6,72.4,30.07,NNE,21,0.0,0.0,96,0.00,FEW,,0.00,0.0,WeatherDisplay:10.37,2013-07-19 08:48:00,
2013-07-19 04:53:00,73.5,72.3,30.07,NNE,22,0.0,0.0,96,0.00,FEW,,0.00,0.0,WeatherDisplay:10.37,2013-07-19 08:53:00,
2013-07-19 04:58:00,73.6,72.4,30.06,NNE,22,0.0,0.0,96,0.00,FEW,,0.00,0.0,WeatherDisplay:10.37,2013-07-19 08:58:00,
2013-07-19 05:03:00,73.6,72.7,30.06,NNE,21,0.0,0.0,97,0.00,FEW,,0.00,0.0,WeatherDisplay:10.37,2013-07-19 09:03:00,
2013-07-19 05:08:00,73.7,72.8,30.07,NNE,22,0.0,0.0,97,0.00,FEW,,0.00,0.0,WeatherDisplay:10.37,2013-07-19 09:08:00,
2013-07-19 05:13:00,73.7,72.8,30.07,NNE,22,0.0,0.0,97,0.00,FEW,,0.00,0.0,WeatherDisplay:10.37,2013-07-19 09:13:00,
2013-07-19 05:18:00,73.8,72.9,30.07,NNE,23,1.2,0.0,97,0.00,FEW,,0.00,0.0,WeatherDisplay:10.37,2013-07-19 09:18:00,
2013-07-19 05:23:00,73.8,72.9,30.07,ESE,106,2.3,2.3,97,0.00,FEW,,0.00,0.0,WeatherDisplay:10.37,2013-07-19 09:23:00,
2013-07-19 05:28:00,73.8,72.9,30.07,ESE,106,0.0,0.0,97,0.00,FEW,,0.00,0.0,WeatherDisplay:10.37,2013-07-19 09:28:00,
2013-07-19 05:33:00,73.8,72.9,30.07,ESE,106,0.0,0.0,97,0.00,FEW,,0.00,0.0,WeatherDisplay:10.37,2013-07-19 09:33:00,
2013-07-19 05:38:00,73.8,72.9,30.07,ESE,106,0.0,0.0,97,0.00,FEW,,0.00,0.0,WeatherDisplay:10.37,2013-07-19 09:38:00,
2013-07-19 05:43:00,73.9,73.0,30.07,ESE,106,0.0,0.0,97,0.00,FEW,,0.00,0.0,WeatherDisplay:10.37,2013-07-19 09:43:00,
2013-07-19 05:48:00,73.9,73.0,30.07,ESE,106,0.0,0.0,97,0.00,FEW,,0.00,0.0,WeatherDisplay:10.37,2013-07-19 09:48:00,
2013-07-19 05:53:00,73.9,73.0,30.07,ESE,106,0.0,0.0,97,0.00,FEW,,0.00,0.0,WeatherDisplay:10.37,2013-07-19 09:53:00,
2013-07-19 05:58:00,73.9,73.0,30.07,ESE,106,0.0,0.0,97,0.00,FEW,,0.00,0.0,WeatherDisplay:10.37,2013-07-19 09:58:00,
2013-07-19 06:03:00,73.9,73.0,30.07,ESE,106,0.0,0.0,97,0.00,FEW,,0.00,0.0,WeatherDisplay:10.37,2013-07-19 10:03:00,
2013-07-19 06:08:00,73.9,73.0,30.07,ESE,106,0.0,0.0,97,0.00,FEW,,0.00,0.0,WeatherDisplay:10.37,2013-07-19 10:08:00,
2013-07-19 06:13:00,73.9,73.0,30.07,ESE,106,0.0,0.0,97,0.00,FEW,,0.00,0.0,WeatherDisplay:10.37,2013-07-19 10:13:00,
2013-07-19 06:18:00,73.9,73.0,30.07,SE,127,0.0,0.0,97,0.00,FEW,,0.00,0.0,WeatherDisplay:10.37,2013-07-19 10:18:00,
2013-07-19 06:23:00,74.1,73.2,30.07,SE,142,1.2,1.2,97,0.00,FEW,,0.00,0.0,WeatherDisplay:10.37,2013-07-19 10:23:00,
2013-07-19 06:28:00,74.3,73.4,30.07,SE,141,0.0,0.0,97,0.00,FEW,,0.00,0.0,WeatherDisplay:10.37,2013-07-19 10:28:00,
2013-07-19 06:33:00,74.4,73.5,30.08,SE,143,0.0,0.0,97,0.00,FEW,,0.00,0.0,WeatherDisplay:10.37,2013-07-19 10:33:00,
2013-07-19 06:38:00,74.6,73.7,30.08,SE,142,0.0,0.0,97,0.00,FEW,,0.00,0.0,WeatherDisplay:10.37,2013-07-19 10:38:00,
2013-07-19 06:43:00,74.6,73.7,30.07,SE,143,0.0,0.0,97,0.00,FEW,,0.00,0.0,WeatherDisplay:10.37,2013-07-19 10:43:00,
2013-07-19 06:48:00,74.7,73.8,30.08,SE,142,0.0,0.0,97,0.00,FEW,,0.00,0.0,WeatherDisplay:10.37,2013-07-19 10:48:00,
2013-07-19 06:53:00,74.7,73.8,30.08,ENE,61,0.0,0.0,97,0.00,FEW,,0.00,0.0,WeatherDisplay:10.37,2013-07-19 10:53:00,
2013-07-19 06:58:00,74.7,73.8,30.08,ENE,60,0.0,0.0,97,0.00,FEW,,0.00,0.0,WeatherDisplay:10.37,2013-07-19 10:58:00,
2013-07-19 07:03:00,74.7,73.8,30.08,ENE,60,0.0,0.0,97,0.00,FEW,,0.00,0.0,WeatherDisplay:10.37,2013-07-19 11:03:00,
2013-07-19 07:08:00,74.7,73.8,30.08,ENE,60,0.0,0.0,97,0.00,FEW,,0.00,0.0,WeatherDisplay:10.37,2013-07-19 11:08:00,
2013-07-19 07:13:00,74.7,73.8,30.08,ENE,60,0.0,0.0,97,0.00,FEW,,0.00,0.0,WeatherDisplay:10.37,2013-07-19 11:13:00,
2013-07-19 07:18:00,74.7,73.8,30.08,ENE,60,0.0,0.0,97,0.00,SCT,,0.00,0.0,WeatherDisplay:10.37,2013-07-19 11:18:00,
2013-07-19 07:23:00,74.8,73.9,30.08,ENE,59,0.0,0.0,97,0.00,SCT,,0.00,0.0,WeatherDisplay:10.37,2013-07-19 11:23:00,
2013-07-19 07:28:00,74.9,74.0,30.08,ENE,60,0.0,0.0,97,0.00,SCT,,0.00,0.0,WeatherDisplay:10.37,2013-07-19 11:28:00,
2013-07-19 07:33:00,75.0,74.1,30.08,ENE,60,0.0,0.0,97,0.00,SCT,,0.00,0.0,WeatherDisplay:10.37,2013-07-19 11:33:00,
2013-07-19 07:38:00,75.2,74.3,30.08,ENE,59,0.0,0.0,97,0.00,SCT,,0.00,0.0,WeatherDisplay:10.37,2013-07-19 11:38:00,
2013-07-19 07:43:00,75.4,74.5,30.08,ENE,75,1.2,1.2,97,0.00,SCT,,0.00,0.0,WeatherDisplay:10.37,2013-07-19 11:43:00,
2013-07-19 07:48:00,75.6,74.7,30.08,ENE,75,0.0,0.1,97,0.00,SCT,,0.00,0.0,WeatherDisplay:10.37,2013-07-19 11:48:00,
2013-07-19 07:53:00,75.8,74.9,30.08,SSE,149,3.5,3.5,97,0.00,SCT,,0.00,0.0,WeatherDisplay:10.37,2013-07-19 11:53:00,
2013-07-19 07:58:00,76.1,75.2,30.08,SSE,165,3.0,3.0,97,0.00,SCT,,0.00,0.0,WeatherDisplay:10.37,2013-07-19 11:58:00,
2013-07-19 08:03:00,76.5,75.6,30.08,ESE,116,3.5,3.5,97,0.00,SCT,,0.00,0.0,WeatherDisplay:10.37,2013-07-19 12:03:00,
2013-07-19 08:08:00,76.9,76.0,30.09,SSW,210,3.5,3.5,97,0.00,SCT,,0.00,0.0,WeatherDisplay:10.37,2013-07-19 12:08:00,
2013-07-19 08:13:00,77.4,76.2,30.09,South,177,4.6,4.6,96,0.00,SCT,,0.00,0.0,WeatherDisplay:10.37,2013-07-19 12:13:00,
2013-07-19 08:18:00,78.2,76.3,30.09,SSE,157,3.5,3.5,94,0.00,SCT,,0.00,0.0,WeatherDisplay:10.37,2013-07-19 12:18:00,
2013-07-19 08:23:00,79.0,76.5,30.09,SE,139,5.8,5.8,92,0.00,SCT,,0.00,0.0,WeatherDisplay:10.37,2013-07-19 12:23:00,
2013-07-19 08:28:00,80.0,76.8,30.09,SE,142,4.6,4.6,90,0.00,SCT,,0.00,0.0,WeatherDisplay:10.37,2013-07-19 12:28:00,
2013-07-19 08:33:00,80.7,76.8,30.09,SSE,157,4.6,4.6,88,0.00,SCT,,0.00,0.0,WeatherDisplay:10.37,2013-07-19 12:33:00,
2013-07-19 08:38:00,81.1,76.5,30.10,SSE,160,2.3,2.3,86,0.00,SCT,,0.00,0.0,WeatherDisplay:10.37,2013-07-19 12:38:00,
2013-07-19 08:43:00,81.3,76.4,30.09,SSW,206,5.8,5.8,85,0.00,SCT,,0.00,0.0,WeatherDisplay:10.37,2013-07-19 12:43:00,
2013-07-19 08:48:00,81.5,75.5,30.10,South,174,6.0,6.0,82,0.00,SCT,,0.00,0.0,WeatherDisplay:10.37,2013-07-19 12:48:00,
2013-07-19 08:53:00,81.9,75.9,30.10,SSE,149,5.8,5.8,82,0.00,SCT,,0.00,0.0,WeatherDisplay:10.37,2013-07-19 12:53:00,
2013-07-19 08:58:00,82.4,76.0,30.10,SSE,166,4.6,4.6,81,0.00,SCT,,0.00,0.0,WeatherDisplay:10.37,2013-07-19 12:58:00,
2013-07-19 09:03:00,83.1,76.7,30.10,South,173,4.6,4.6,81,0.00,SCT,,0.00,0.0,WeatherDisplay:10.37,2013-07-19 13:03:00,
2013-07-19 09:08:00,83.6,76.4,30.10,SSW,199,3.5,3.5,79,0.00,SCT,,0.00,0.0,WeatherDisplay:10.37,2013-07-19 13:08:00,
2013-07-19 09:13:00,84.1,76.5,30.10,SSW,209,4.6,5.5,78,0.00,SCT,,0.00,0.0,WeatherDisplay:10.37,2013-07-19 13:13:00,
2013-07-19 09:18:00,84.6,76.6,30.10,South,189,3.5,3.5,77,0.00,SCT,,0.00,0.0,WeatherDisplay:10.37,2013-07-19 13:18:00,
2013-07-19 09:23:00,84.7,76.3,30.10,SSE,154,8.0,8.0,76,0.00,SCT,,0.00,0.0,WeatherDisplay:10.37,2013-07-19 13:23:00,
2013-07-19 09:26:00,84.8,76.4,30.09,SE,127,4.6,4.6,76,0.00,SCT,,0.00,0.0,WeatherDisplay:10.37,2013-07-19 13:26:00,
2013-07-19 09:31:00,84.9,76.1,30.10,SE,126,6.9,6.9,75,0.00,SCT,,0.00,0.0,WeatherDisplay:10.37,2013-07-19 13:31:00,
2013-07-19 09:36:00,85.2,76.0,30.09,SW,218,5.8,5.8,74,0.00,SCT,,0.00,0.0,WeatherDisplay:10.37,2013-07-19 13:36:00,
2013-07-19 09:41:00,85.3,76.5,30.09,ESE,115,6.9,6.9,75,0.00,SCT,,0.00,0.0,WeatherDisplay:10.37,2013-07-19 13:41:00,
2013-07-19 09:46:00,85.6,76.4,30.09,South,181,3.5,3.5,74,0.00,SCT,,0.00,0.0,WeatherDisplay:10.37,2013-07-19 13:46:00,
2013-07-19 09:51:00,85.9,76.2,30.10,South,172,5.8,5.8,73,0.00,SCT,,0.00,0.0,WeatherDisplay:10.37,2013-07-19 13:51:00,
2013-07-19 09:56:00,86.1,76.8,30.10,SSE,166,3.5,3.5,74,0.00,SCT,,0.00,0.0,WeatherDisplay:10.37,2013-07-19 13:56:00,
2013-07-19 10:01:00,86.2,75.7,30.10,SW,215,4.6,4.6,71,0.00,SCT,,0.00,0.0,WeatherDisplay:10.37,2013-07-19 14:01:00,
2013-07-19 10:06:00,86.0,75.1,30.10,South,172,3.5,3.5,70,0.00,SCT,,0.00,0.0,WeatherDisplay:10.37,2013-07-19 14:06:00,
2013-07-19 10:11:00,86.1,75.2,30.10,SSE,168,11.5,11.5,70,0.00,SCT,,0.00,0.0,WeatherDisplay:10.37,2013-07-19 14:11:00,
2013-07-19 10:16:00,86.6,76.1,30.10,SSE,152,4.6,4.6,71,0.00,SCT,,0.00,0.0,WeatherDisplay:10.37,2013-07-19 14:16:00,
2013-07-19 10:21:00,86.8,75.8,30.10,NE,45,6.9,6.9,70,0.00,SCT,,0.00,0.0,WeatherDisplay:10.37,2013-07-19 14:21:00,
2013-07-19 10:26:00,86.9,75.9,30.10,SE,139,9.0,9.0,70,0.00,SCT,,0.00,0.0,WeatherDisplay:10.37,2013-07-19 14:26:00,
2013-07-19 10:31:00,87.0,76.9,30.10,SE,144,5.8,5.8,72,0.00,SCT,,0.00,0.0,WeatherDisplay:10.37,2013-07-19 14:31:00,
2013-07-19 10:36:00,87.4,77.7,30.10,South,174,3.5,3.5,73,0.00,SCT,,0.00,0.0,WeatherDisplay:10.37,2013-07-19 14:36:00,
2013-07-19 10:41:00,87.8,75.9,30.10,South,187,9.2,9.2,68,0.00,SCT,,0.00,0.0,WeatherDisplay:10.37,2013-07-19 14:41:00,
2013-07-19 10:46:00,88.1,76.6,30.10,South,186,4.6,4.6,69,0.00,SCT,,0.00,0.0,WeatherDisplay:10.37,2013-07-19 14:46:00,
2013-07-19 10:51:00,88.0,77.0,30.10,South,180,5.8,5.8,70,0.00,SCT,,0.00,0.0,WeatherDisplay:10.37,2013-07-19 14:51:00,
2013-07-19 10:56:00,88.1,76.2,30.10,SE,140,8.1,8.1,68,0.00,SCT,,0.00,0.0,WeatherDisplay:10.37,2013-07-19 14:56:00,
2013-07-19 11:01:00,88.2,77.2,30.10,SE,140,4.6,4.6,70,0.00,SCT,,0.00,0.0,WeatherDisplay:10.37,2013-07-19 15:01:00,
2013-07-19 11:06:00,88.4,77.4,30.10,South,173,6.9,6.9,70,0.00,SCT,,0.00,0.0,WeatherDisplay:10.37,2013-07-19 15:06:00,
2013-07-19 11:11:00,88.1,76.2,30.10,South,176,8.1,8.1,68,0.00,SCT,,0.00,0.0,WeatherDisplay:10.37,2013-07-19 15:11:00,
2013-07-19 11:16:00,87.7,76.3,30.10,SSE,160,5.8,5.8,69,0.00,SCT,,0.00,0.0,WeatherDisplay:10.37,2013-07-19 15:16:00,
2013-07-19 11:21:00,87.7,76.7,30.10,SE,127,6.9,6.9,70,0.00,SCT,,0.00,0.0,WeatherDisplay:10.37,2013-07-19 15:21:00,
2013-07-19 11:27:00,88.3,78.1,30.10,SSE,160,2.3,2.3,72,0.00,SCT,,0.00,0.0,WeatherDisplay:10.37,2013-07-19 15:27:00,
2013-07-19 11:32:00,87.8,76.4,30.10,SSE,168,9.2,9.2,69,0.00,SCT,,0.00,0.0,WeatherDisplay:10.37,2013-07-19 15:32:00,
2013-07-19 11:37:00,87.0,76.9,30.10,South,172,1.2,1.2,72,0.00,SCT,,0.00,0.0,WeatherDisplay:10.37,2013-07-19 15:37:00,
2013-07-19 11:42:00,86.2,76.5,30.10,South,189,5.8,5.8,73,0.00,SCT,,0.00,0.0,WeatherDisplay:10.37,2013-07-19 15:42:00,
2013-07-19 11:47:00,84.8,76.0,30.11,South,172,9.2,9.2,75,0.01,RA,,0.01,0.0,WeatherDisplay:10.37,2013-07-19 15:47:00,
2013-07-19 11:52:00,82.0,75.2,30.11,SE,127,12.7,12.7,80,0.06,RA,,0.07,0.0,WeatherDisplay:10.37,2013-07-19 15:52:00,
2013-07-19 11:57:00,79.3,74.4,30.11,SSE,168,4.6,4.6,85,0.15,RA,,0.16,0.0,WeatherDisplay:10.37,2013-07-19 15:57:00,
2013-07-19 12:02:00,78.1,74.9,30.10,SSE,152,3.5,3.5,90,0.18,RA,,0.18,0.0,WeatherDisplay:10.37,2013-07-19 16:02:00,
2013-07-19 12:07:00,77.5,74.7,30.10,SSE,168,1.2,1.2,91,0.18,RA,,0.18,0.0,WeatherDisplay:10.37,2013-07-19 16:07:00,
2013-07-19 12:12:00,77.2,75.0,30.10,ESE,106,2.3,2.3,93,0.19,RA,,0.19,0.0,WeatherDisplay:10.37,2013-07-19 16:12:00,
2013-07-19 12:17:00,77.0,75.1,30.11,East,93,2.3,2.3,94,0.19,RA,,0.19,0.0,WeatherDisplay:10.37,2013-07-19 16:17:00,
2013-07-19 12:22:00,77.2,75.3,30.10,East,94,2.3,2.3,94,0.19,SCT,,0.19,0.0,WeatherDisplay:10.37,2013-07-19 16:22:00,
2013-07-19 12:27:00,77.4,75.9,30.10,ESE,102,2.3,2.3,95,0.19,SCT,,0.19,0.0,WeatherDisplay:10.37,2013-07-19 16:27:00,
2013-07-19 12:32:00,77.7,76.2,30.10,ESE,104,1.2,1.2,95,0.19,SCT,,0.19,0.0,WeatherDisplay:10.37,2013-07-19 16:32:00,
2013-07-19 12:37:00,78.0,76.5,30.10,SSE,168,4.6,4.6,95,0.19,SCT,,0.19,0.0,WeatherDisplay:10.37,2013-07-19 16:37:00,
2013-07-19 12:42:00,78.4,77.2,30.09,SSE,147,2.3,2.3,96,0.19,SCT,,0.19,0.0,WeatherDisplay:10.37,2013-07-19 16:42:00,
2013-07-19 12:47:00,78.8,77.6,30.09,SSE,152,3.5,3.5,96,0.18,SCT,,0.19,0.0,WeatherDisplay:10.37,2013-07-19 16:47:00,
2013-07-19 12:52:00,79.2,78.0,30.09,SSE,166,3.5,3.5,96,0.13,SCT,,0.19,0.0,WeatherDisplay:10.37,2013-07-19 16:52:00,
2013-07-19 12:57:00,79.5,77.9,30.09,ESE,120,1.2,1.2,95,0.04,SCT,,0.19,0.0,WeatherDisplay:10.37,2013-07-19 16:57:00,
2013-07-19 13:02:00,79.9,78.3,30.08,South,179,3.5,3.5,95,0.01,SCT,,0.19,0.0,WeatherDisplay:10.37,2013-07-19 17:02:00,
2013-07-19 13:07:00,80.3,78.1,30.08,South,174,8.1,8.1,93,0.01,SCT,,0.19,0.0,WeatherDisplay:10.37,2013-07-19 17:07:00,
2013-07-19 13:12:00,81.1,79.2,30.08,NE,52,2.3,2.3,94,0.00,SCT,,0.19,0.0,WeatherDisplay:10.37,2013-07-19 17:12:00,
2013-07-19 13:17:00,81.8,79.2,30.07,South,182,3.5,3.5,92,0.00,BKN,,0.19,0.0,WeatherDisplay:10.37,2013-07-19 17:17:00,
2013-07-19 13:22:00,82.3,78.7,30.07,SSE,156,1.2,1.2,89,0.00,BKN,,0.19,0.0,WeatherDisplay:10.37,2013-07-19 17:22:00,
2013-07-19 13:27:00,82.6,78.3,30.07,SSW,202,9.2,9.2,87,0.00,BKN,,0.19,0.0,WeatherDisplay:10.37,2013-07-19 17:27:00,
2013-07-19 13:32:00,82.9,78.6,30.07,SSW,193,6.9,6.9,87,0.00,BKN,,0.19,0.0,WeatherDisplay:10.37,2013-07-19 17:32:00,
2013-07-19 13:37:00,83.3,78.7,30.07,South,176,4.6,4.6,86,0.00,BKN,,0.19,0.0,WeatherDisplay:10.37,2013-07-19 17:37:00,
2013-07-19 13:42:00,83.9,78.5,30.07,South,175,8.1,8.1,84,0.00,BKN,,0.19,0.0,WeatherDisplay:10.37,2013-07-19 17:42:00,
2013-07-19 13:47:00,84.7,78.6,30.06,South,173,9.2,9.2,82,0.00,BKN,,0.19,0.0,WeatherDisplay:10.37,2013-07-19 17:47:00,
2013-07-19 13:52:00,85.1,79.0,30.06,SSE,164,6.9,6.9,82,0.00,BKN,,0.19,0.0,WeatherDisplay:10.37,2013-07-19 17:52:00,
2013-07-19 13:57:00,85.2,77.6,30.07,South,177,11.5,11.5,78,0.00,BKN,,0.19,0.0,WeatherDisplay:10.37,2013-07-19 17:57:00,
2013-07-19 14:02:00,85.6,79.5,30.06,East,81,5.8,5.8,82,0.00,SCT,,0.19,0.0,WeatherDisplay:10.37,2013-07-19 18:02:00,
2013-07-19 14:07:00,85.7,77.7,30.07,ESE,123,9.2,9.2,77,0.00,SCT,,0.19,0.0,WeatherDisplay:10.37,2013-07-19 18:07:00,
2013-07-19 14:12:00,85.9,77.5,30.07,SSE,149,11.5,11.5,76,0.00,SCT,,0.19,0.0,WeatherDisplay:10.37,2013-07-19 18:12:00,
2013-07-19 14:17:00,85.9,77.1,30.07,SSE,162,4.6,4.6,75,0.00,SCT,,0.19,0.0,WeatherDisplay:10.37,2013-07-19 18:17:00,
2013-07-19 14:22:00,85.9,77.1,30.07,South,186,5.8,5.8,75,0.00,SCT,,0.19,0.0,WeatherDisplay:10.37,2013-07-19 18:22:00,
2013-07-19 14:27:00,86.0,76.7,30.07,SSE,149,4.6,4.6,74,0.00,SCT,,0.19,0.0,WeatherDisplay:10.37,2013-07-19 18:27:00,
2013-07-19 14:32:00,86.5,77.2,30.07,SSE,166,11.5,11.5,74,0.00,SCT,,0.19,0.0,WeatherDisplay:10.37,2013-07-19 18:32:00,
2013-07-19 14:37:00,86.9,76.8,30.07,SE,130,4.0,4.0,72,0.00,SCT,,0.19,0.0,WeatherDisplay:10.37,2013-07-19 18:37:00,
2013-07-19 14:42:00,87.3,77.2,30.07,SSE,166,5.0,5.0,72,0.00,SCT,,0.19,0.0,WeatherDisplay:10.37,2013-07-19 18:42:00,
2013-07-19 14:47:00,87.7,78.4,30.07,SW,224,5.8,5.8,74,0.00,SCT,,0.19,0.0,WeatherDisplay:10.37,2013-07-19 18:47:00,
2013-07-19 14:52:00,87.8,78.1,30.07,SSW,208,6.9,6.9,73,0.00,SCT,,0.19,0.0,WeatherDisplay:10.37,2013-07-19 18:52:00,
2013-07-19 14:57:00,87.9,79.0,30.07,SE,146,4.0,4.0,75,0.00,SCT,,0.19,0.0,WeatherDisplay:10.37,2013-07-19 18:57:00,
2013-07-19 15:02:00,87.9,77.3,30.07,SSW,199,5.8,5.8,71,0.00,SCT,,0.19,0.0,WeatherDisplay:10.37,2013-07-19 19:02:00,
2013-07-19 15:07:00,87.7,77.1,30.07,South,181,11.5,11.5,71,0.00,SCT,,0.19,0.0,WeatherDisplay:10.37,2013-07-19 19:07:00,
2013-07-19 15:12:00,87.8,77.6,30.07,SSW,199,4.6,4.6,72,0.00,SCT,,0.19,0.0,WeatherDisplay:10.37,2013-07-19 19:12:00,
2013-07-19 15:17:00,87.8,77.2,30.07,South,184,9.2,9.2,71,0.00,SCT,,0.19,0.0,WeatherDisplay:10.37,2013-07-19 19:17:00,
2013-07-19 15:22:00,87.5,76.5,30.07,SSE,164,11.5,11.5,70,0.00,SCT,,0.19,0.0,WeatherDisplay:10.37,2013-07-19 19:22:00,
2013-07-19 15:28:00,86.8,77.1,30.06,NE,48,2.3,2.3,73,0.00,SCT,,0.19,0.0,WeatherDisplay:10.37,2013-07-19 19:28:00,
2013-07-19 15:33:00,87.1,77.0,30.06,SE,136,9.2,9.2,72,0.00,SCT,,0.19,0.0,WeatherDisplay:10.37,2013-07-19 19:33:00,
2013-07-19 15:38:00,87.7,77.1,30.05,South,172,4.6,4.6,71,0.00,SCT,,0.19,0.0,WeatherDisplay:10.37,2013-07-19 19:38:00,
2013-07-19 15:43:00,88.1,76.2,30.05,SSW,199,9.2,9.2,68,0.00,SCT,,0.19,0.0,WeatherDisplay:10.37,2013-07-19 19:43:00,
2013-07-19 15:48:00,88.2,75.9,30.05,South,183,4.6,4.6,67,0.00,SCT,,0.19,0.0,WeatherDisplay:10.37,2013-07-19 19:48:00,
2013-07-19 15:53:00,88.4,77.4,30.04,SE,138,5.8,5.8,70,0.00,SCT,,0.19,0.0,WeatherDisplay:10.37,2013-07-19 19:53:00,
2013-07-19 15:58:00,88.3,76.4,30.04,SSW,201,12.7,12.7,68,0.00,SCT,,0.19,0.0,WeatherDisplay:10.37,2013-07-19 19:58:00,
2013-07-19 16:03:00,88.3,76.8,30.03,South,173,2.3,2.3,69,0.00,BKN,,0.19,0.0,WeatherDisplay:10.37,2013-07-19 20:03:00,
2013-07-19 16:08:00,88.4,77.8,30.03,South,189,5.8,5.8,71,0.00,BKN,,0.19,0.0,WeatherDisplay:10.37,2013-07-19 20:08:00,
2013-07-19 16:13:00,88.6,77.6,30.03,SSE,148,4.6,4.6,70,0.00,BKN,,0.19,0.0,WeatherDisplay:10.37,2013-07-19 20:13:00,
2013-07-19 16:18:00,88.6,77.1,30.03,SSW,202,2.3,2.3,69,0.00,BKN,,0.19,0.0,WeatherDisplay:10.37,2013-07-19 20:18:00,
2013-07-19 16:23:00,88.6,77.6,30.02,SSE,167,3.5,3.5,70,0.00,BKN,,0.19,0.0,WeatherDisplay:10.37,2013-07-19 20:23:00,
2013-07-19 16:28:00,88.6,78.0,30.02,SE,145,3.5,3.5,71,0.00,BKN,,0.19,0.0,WeatherDisplay:10.37,2013-07-19 20:28:00,
2013-07-19 16:33:00,87.9,76.9,30.01,South,182,1.2,1.2,70,0.00,BKN,,0.19,0.0,WeatherDisplay:10.37,2013-07-19 20:33:00,
2013-07-19 16:38:00,87.1,75.7,30.01,NW,305,2.0,2.0,69,0.00,BKN,,0.19,0.0,WeatherDisplay:10.37,2013-07-19 20:38:00,
2013-07-19 16:44:00,86.5,77.2,30.01,NNE,28,1.2,1.2,74,0.00,BKN,,0.19,0.0,WeatherDisplay:10.37,2013-07-19 20:44:00,
2013-07-19 16:49:00,86.2,76.1,30.01,South,182,4.6,4.6,72,0.00,BKN,,0.19,0.0,WeatherDisplay:10.37,2013-07-19 20:49:00,
2013-07-19 16:54:00,85.8,75.7,30.01,South,179,2.3,2.3,72,0.00,BKN,,0.19,0.0,WeatherDisplay:10.37,2013-07-19 20:54:00,
2013-07-19 16:59:00,85.5,75.9,30.01,South,186,0.0,0.0,73,0.00,BKN,,0.19,0.0,WeatherDisplay:10.37,2013-07-19 20:59:00,
2013-07-19 17:04:00,85.3,76.1,30.01,South,177,2.3,2.3,74,0.00,BKN,,0.19,0.0,WeatherDisplay:10.37,2013-07-19 21:04:00,
2013-07-19 17:09:00,85.2,76.4,30.02,SE,135,2.3,2.3,75,0.00,BKN,,0.19,0.0,WeatherDisplay:10.37,2013-07-19 21:09:00,
2013-07-19 17:14:00,85.0,75.8,30.01,SSE,168,4.6,4.6,74,0.00,BKN,,0.19,0.0,WeatherDisplay:10.37,2013-07-19 21:14:00,
2013-07-19 17:19:00,85.0,76.2,30.01,South,182,6.9,6.9,75,0.00,BKN,,0.19,0.0,WeatherDisplay:10.37,2013-07-19 21:19:00,
2013-07-19 17:24:00,85.0,76.2,30.01,SSE,163,2.3,2.3,75,0.00,BKN,,0.19,0.0,WeatherDisplay:10.37,2013-07-19 21:24:00,
2013-07-19 17:29:00,84.9,76.1,30.01,SSE,153,3.5,3.5,75,0.00,BKN,,0.19,0.0,WeatherDisplay:10.37,2013-07-19 21:29:00,
2013-07-19 17:34:00,84.9,76.5,30.01,South,179,3.5,3.5,76,0.00,BKN,,0.19,0.0,WeatherDisplay:10.37,2013-07-19 21:34:00,
2013-07-19 17:39:00,84.7,75.9,30.01,South,178,9.2,9.2,75,0.00,BKN,,0.19,0.0,WeatherDisplay:10.37,2013-07-19 21:39:00,
2013-07-19 17:44:00,84.3,76.3,30.01,SSE,151,11.5,11.5,77,0.00,BKN,,0.19,0.0,WeatherDisplay:10.37,2013-07-19 21:44:00,
2013-07-19 17:49:00,83.9,75.5,30.01,South,175,12.7,12.7,76,0.00,BKN,,0.19,0.0,WeatherDisplay:10.37,2013-07-19 21:49:00,
2013-07-19 17:54:00,83.6,76.0,30.01,South,170,6.0,6.0,78,0.00,BKN,,0.19,0.0,WeatherDisplay:10.37,2013-07-19 21:54:00,
2013-07-19 17:59:00,83.3,75.7,30.01,SSE,161,8.1,8.1,78,0.00,BKN,,0.19,0.0,WeatherDisplay:10.37,2013-07-19 21:59:00,
2013-07-19 18:04:00,83.1,75.9,30.00,SSE,162,4.6,4.6,79,0.00,BKN,,0.19,0.0,WeatherDisplay:10.37,2013-07-19 22:04:00,
2013-07-19 18:09:00,82.9,75.7,30.01,SSE,156,11.5,11.5,79,0.00,BKN,,0.19,0.0,WeatherDisplay:10.37,2013-07-19 22:09:00,
2013-07-19 18:14:00,82.7,75.9,30.01,South,177,6.9,6.9,80,0.00,BKN,,0.19,0.0,WeatherDisplay:10.37,2013-07-19 22:14:00,
2013-07-19 18:19:00,82.4,75.6,30.00,ESE,114,6.9,6.9,80,0.00,BKN,,0.19,0.0,WeatherDisplay:10.37,2013-07-19 22:19:00,
2013-07-19 18:24:00,82.2,75.8,30.00,SE,133,2.3,2.3,81,0.00,BKN,,0.19,0.0,WeatherDisplay:10.37,2013-07-19 22:24:00,
2013-07-19 18:29:00,82.0,75.6,30.00,SSE,161,4.6,4.6,81,0.00,BKN,,0.19,0.0,WeatherDisplay:10.37,2013-07-19 22:29:00,
2013-07-19 18:34:00,81.8,75.4,30.00,SSE,168,4.6,4.6,81,0.00,BKN,,0.19,0.0,WeatherDisplay:10.37,2013-07-19 22:34:00,
2013-07-19 18:39:00,81.6,75.6,30.00,SSE,149,6.9,6.9,82,0.00,BKN,,0.19,0.0,WeatherDisplay:10.37,2013-07-19 22:39:00,
2013-07-19 18:44:00,81.5,75.5,30.01,South,170,3.5,3.5,82,0.00,BKN,,0.19,0.0,WeatherDisplay:10.37,2013-07-19 22:44:00,
2013-07-19 18:49:00,81.2,75.2,30.01,ESE,121,5.8,5.8,82,0.00,BKN,,0.19,0.0,WeatherDisplay:10.37,2013-07-19 22:49:00,
2013-07-19 18:54:00,81.1,75.1,30.01,SSE,154,6.9,6.9,82,0.00,BKN,,0.19,0.0,WeatherDisplay:10.37,2013-07-19 22:54:00,
2013-07-19 18:59:00,81.0,75.3,30.01,South,174,11.5,11.5,83,0.00,BKN,,0.19,0.0,WeatherDisplay:10.37,2013-07-19 22:59:00,
2013-07-19 19:04:00,80.9,75.2,30.01,SSE,166,3.5,3.5,83,0.00,BKN,,0.19,0.0,WeatherDisplay:10.37,2013-07-19 23:04:00,
2013-07-19 19:09:00,80.9,75.6,30.01,SW,220,3.5,3.5,84,0.00,BKN,,0.19,0.0,WeatherDisplay:10.37,2013-07-19 23:09:00,
2013-07-19 19:14:00,80.8,75.5,30.01,SSE,156,1.2,0.0,84,0.00,BKN,,0.19,0.0,WeatherDisplay:10.37,2013-07-19 23:14:00,
2013-07-19 19:19:00,80.8,75.5,30.01,SSE,154,4.6,4.6,84,0.00,BKN,,0.19,0.0,WeatherDisplay:10.37,2013-07-19 23:19:00,
2013-07-19 19:24:00,80.7,75.4,30.01,South,191,4.6,4.6,84,0.00,BKN,,0.19,0.0,WeatherDisplay:10.37,2013-07-19 23:24:00,
2013-07-19 19:29:00,80.7,75.4,30.01,SE,138,10.4,10.4,84,0.00,BKN,,0.19,0.0,WeatherDisplay:10.37,2013-07-19 23:29:00,
2013-07-19 19:34:00,80.7,75.8,30.02,SSE,149,3.5,3.5,85,0.00,BKN,,0.19,0.0,WeatherDisplay:10.37,2013-07-19 23:34:00,
2013-07-19 19:39:00,80.6,75.7,30.01,South,187,4.6,4.6,85,0.00,BKN,,0.19,0.0,WeatherDisplay:10.37,2013-07-19 23:39:00,
2013-07-19 19:44:00,80.6,75.7,30.01,SW,231,3.5,3.5,85,0.00,BKN,,0.19,0.0,WeatherDisplay:10.37,2013-07-19 23:44:00,
2013-07-19 19:49:00,80.6,75.7,30.02,SSE,166,4.6,4.6,85,0.00,BKN,,0.19,0.0,WeatherDisplay:10.37,2013-07-19 23:49:00,
2013-07-19 19:54:00,80.5,75.2,30.02,SSE,167,6.9,6.9,84,0.00,BKN,,0.19,0.0,WeatherDisplay:10.37,2013-07-19 23:54:00,
2013-07-19 19:59:00,80.4,75.5,30.02,SSW,208,5.8,5.8,85,0.00,BKN,,0.19,0.0,WeatherDisplay:10.37,2013-07-19 23:59:00,
2013-07-19 20:04:00,80.3,75.0,30.02,South,189,6.9,6.9,84,0.00,BKN,,0.19,0.0,WeatherDisplay:10.37,2013-07-20 00:04:00,
2013-07-19 20:09:00,80.2,75.3,30.02,South,187,6.9,6.9,85,0.00,BKN,,0.19,0.0,WeatherDisplay:10.37,2013-07-20 00:09:00,
2013-07-19 20:14:00,80.1,75.2,30.03,South,180,3.0,3.0,85,0.00,BKN,,0.19,0.0,WeatherDisplay:10.37,2013-07-20 00:14:00,
2013-07-19 20:19:00,80.0,75.1,30.03,SSW,206,4.6,4.6,85,0.00,BKN,,0.19,0.0,WeatherDisplay:10.37,2013-07-20 00:19:00,
2013-07-19 20:24:00,79.9,75.3,30.03,South,183,5.8,5.8,86,0.00,BKN,,0.19,0.0,WeatherDisplay:10.37,2013-07-20 00:24:00,
2013-07-19 20:29:00,79.8,75.2,30.03,SSW,211,2.3,2.3,86,0.00,BKN,,0.19,0.0,WeatherDisplay:10.37,2013-07-20 00:29:00,
2013-07-19 20:34:00,79.7,75.5,30.03,SSE,166,5.8,5.8,87,0.00,BKN,,0.19,0.0,WeatherDisplay:10.37,2013-07-20 00:34:00,
2013-07-19 20:39:00,79.6,75.0,30.03,SSW,201,2.3,0.0,86,0.00,BKN,,0.19,0.0,WeatherDisplay:10.37,2013-07-20 00:39:00,
2013-07-19 20:44:00,79.6,75.4,30.03,South,183,0.0,0.1,87,0.00,BKN,,0.19,0.0,WeatherDisplay:10.37,2013-07-20 00:44:00,
2013-07-19 20:49:00,79.5,74.9,30.03,SSW,194,1.2,0.0,86,0.00,BKN,,0.19,0.0,WeatherDisplay:10.37,2013-07-20 00:49:00,
2013-07-19 20:54:00,79.4,74.8,30.03,SSE,159,1.2,0.0,86,0.00,BKN,,0.19,0.0,WeatherDisplay:10.37,2013-07-20 00:54:00,
2013-07-19 20:59:00,79.3,74.7,30.04,SSE,159,0.0,0.1,86,0.00,BKN,,0.19,0.0,WeatherDisplay:10.37,2013-07-20 00:59:00,
2013-07-19 21:04:00,79.2,74.6,30.04,SSE,155,2.3,2.3,86,0.00,SCT,,0.19,0.0,WeatherDisplay:10.37,2013-07-20 01:04:00,
2013-07-19 21:09:00,79.1,74.5,30.03,SSE,154,1.2,1.2,86,0.00,SCT,,0.19,0.0,WeatherDisplay:10.37,2013-07-20 01:09:00,
2013-07-19 21:14:00,79.0,74.5,30.03,South,170,1.2,1.2,86,0.00,SCT,,0.19,0.0,WeatherDisplay:10.37,2013-07-20 01:14:00,
2013-07-19 21:19:00,78.9,74.7,30.04,SSE,156,1.2,0.0,87,0.00,SCT,,0.19,0.0,WeatherDisplay:10.37,2013-07-20 01:19:00,
2013-07-19 21:24:00,78.9,74.7,30.04,SE,143,3.5,3.5,87,0.00,SCT,,0.19,0.0,WeatherDisplay:10.37,2013-07-20 01:24:00,
2013-07-19 21:29:00,78.8,74.6,30.03,SSE,159,3.5,3.5,87,0.00,SCT,,0.19,0.0,WeatherDisplay:10.37,2013-07-20 01:29:00,
2013-07-19 21:34:00,78.9,74.7,30.04,SSW,197,5.8,5.8,87,0.00,SCT,,0.19,0.0,WeatherDisplay:10.37,2013-07-20 01:34:00,
2013-07-19 21:39:00,78.8,74.6,30.04,South,180,2.3,2.3,87,0.00,SCT,,0.19,0.0,WeatherDisplay:10.37,2013-07-20 01:39:00,
2013-07-19 21:44:00,78.9,75.0,30.04,South,170,3.5,3.5,88,0.00,SCT,,0.19,0.0,WeatherDisplay:10.37,2013-07-20 01:44:00,
2013-07-19 21:49:00,78.9,75.0,30.04,South,178,3.5,0.0,88,0.00,SCT,,0.19,0.0,WeatherDisplay:10.37,2013-07-20 01:49:00,
2013-07-19 21:54:00,78.9,74.7,30.04,SSE,162,3.5,3.5,87,0.00,SCT,,0.19,0.0,WeatherDisplay:10.37,2013-07-20 01:54:00,
2013-07-19 21:59:00,79.0,74.8,30.04,SSE,156,2.3,2.3,87,0.00,SCT,,0.19,0.0,WeatherDisplay:10.37,2013-07-20 01:59:00,
2013-07-19 22:04:00,79.0,74.8,30.04,South,187,2.3,2.3,87,0.00,SCT,,0.19,0.0,WeatherDisplay:10.37,2013-07-20 02:04:00,
2013-07-19 22:09:00,79.0,74.8,30.04,SE,132,2.3,2.3,87,0.00,SCT,,0.19,0.0,WeatherDisplay:10.37,2013-07-20 02:09:00,
2013-07-19 22:14:00,79.0,74.8,30.04,South,183,5.8,5.8,87,0.00,SCT,,0.19,0.0,WeatherDisplay:10.37,2013-07-20 02:14:00,
2013-07-19 22:19:00,79.0,74.8,30.04,SSE,159,1.2,1.2,87,0.00,SCT,,0.19,0.0,WeatherDisplay:10.37,2013-07-20 02:19:00,
2013-07-19 22:24:00,79.0,74.8,30.04,SSW,202,4.6,4.6,87,0.00,SCT,,0.19,0.0,WeatherDisplay:10.37,2013-07-20 02:24:00,
2013-07-19 22:29:00,79.1,74.9,30.05,ESE,112,5.8,5.8,87,0.00,SCT,,0.19,0.0,WeatherDisplay:10.37,2013-07-20 02:29:00,
2013-07-19 22:34:00,79.2,75.0,30.05,SSE,162,3.5,3.5,87,0.00,SCT,,0.19,0.0,WeatherDisplay:10.37,2013-07-20 02:34:00,
2013-07-19 22:39:00,79.3,75.1,30.05,South,186,1.2,1.2,87,0.00,SCT,,0.19,0.0,WeatherDisplay:10.37,2013-07-20 02:39:00,
2013-07-19 22:44:00,79.3,75.1,30.05,SSE,155,3.5,3.5,87,0.00,SCT,,0.19,0.0,WeatherDisplay:10.37,2013-07-20 02:44:00,
2013-07-19 22:49:00,79.4,75.2,30.05,SW,220,3.5,3.5,87,0.00,SCT,,0.19,0.0,WeatherDisplay:10.37,2013-07-20 02:49:00,
2013-07-19 22:54:00,79.4,75.5,30.06,ESE,120,3.5,3.5,88,0.00,SCT,,0.19,0.0,WeatherDisplay:10.37,2013-07-20 02:54:00,
2013-07-19 22:59:00,79.4,75.5,30.06,South,186,5.0,5.0,88,0.00,SCT,,0.19,0.0,WeatherDisplay:10.37,2013-07-20 02:59:00,
2013-07-19 23:04:00,79.4,75.5,30.06,SSW,193,3.5,3.5,88,0.00,SCT,,0.19,0.0,WeatherDisplay:10.37,2013-07-20 03:04:00,
2013-07-19 23:09:00,79.4,75.5,30.06,South,189,1.2,1.2,88,0.00,SCT,,0.19,0.0,WeatherDisplay:10.37,2013-07-20 03:09:00,
2013-07-19 23:14:00,79.3,75.4,30.06,South,190,1.2,1.2,88,0.00,SCT,,0.19,0.0,WeatherDisplay:10.37,2013-07-20 03:14:00,
2013-07-19 23:19:00,79.3,75.4,30.06,SW,235,1.2,1.2,88,0.00,SCT,,0.19,0.0,WeatherDisplay:10.37,2013-07-20 03:19:00,
2013-07-19 23:20:00,79.3,75.4,30.06,SW,235,1.2,1.2,88,0.00,SCT,,0.19,0.0,WeatherDisplay:10.37,2013-07-20 03:20:00,
2013-07-19 23:25:00,79.2,75.3,30.06,SE,128,1.2,1.2,88,0.00,SCT,,0.19,0.0,WeatherDisplay:10.37,2013-07-20 03:25:00,
2013-07-19 23:30:00,79.1,75.2,30.06,SSW,196,3.5,3.5,88,0.00,SCT,,0.19,0.0,WeatherDisplay:10.37,2013-07-20 03:30:00,
2013-07-19 23:35:00,79.0,74.8,30.06,SE,145,1.2,1.2,87,0.00,SCT,,0.19,0.0,WeatherDisplay:10.37,2013-07-20 03:35:00,
2013-07-19 23:40:00,78.9,74.7,30.05,South,177,4.6,4.6,87,0.00,SCT,,0.19,0.0,WeatherDisplay:10.37,2013-07-20 03:40:00,
2013-07-19 23:45:00,78.8,74.3,30.06,South,174,2.3,2.3,86,0.00,SCT,,0.19,0.0,WeatherDisplay:10.37,2013-07-20 03:45:00,
2013-07-19 23:50:00,78.7,73.8,30.06,NE,37,2.3,2.3,85,0.00,SCT,,0.19,0.0,WeatherDisplay:10.37,2013-07-20 03:50:00,
2013-07-19 23:55:00,78.6,73.7,30.06,NNE,31,1.2,1.2,85,0.00,SCT,,0.19,0.0,WeatherDisplay:10.37,2013-07-20 03:55:00,